This is the latest recevied weather packets stored in our database for station/object KE8GJZ-2. If no packets are shown the sender has not sent any weather packets the latest 10 day(s).
| Time | Temp. | Humidity | Pressure | Rain* | Wind** | Luminosity | Snow |
|---|---|---|---|---|---|---|---|
| 1778268041 | 16.67° C | 31% | 1008.2 hPa | 0 mm | - | 604 W/m² | - |
| 1778267738 | 17.22° C | 32% | 1008.1 hPa | 0 mm | - | 580 W/m² | - |
| 1778267434 | 17.22° C | 31% | 1008.3 hPa | 0 mm | - | 671 W/m² | - |
| 1778267131 | 17.22° C | 36% | 1008.2 hPa | 0 mm | - | 713 W/m² | - |
| 1778266828 | 16.67° C | 37% | 1008.4 hPa | 0 mm | - | 707 W/m² | - |
| 1778266525 | 17.22° C | 33% | 1008.5 hPa | 0 mm | - | 702 W/m² | - |
| 1778266223 | 16.67° C | 38% | 1008.8 hPa | 0 mm | - | 688 W/m² | - |
| 1778265920 | 16.67° C | 35% | 1008.7 hPa | 0 mm | - | 592 W/m² | - |
| 1778265617 | 16.67° C | 39% | 1008.6 hPa | 0 mm | - | 740 W/m² | - |
| 1778265313 | 16.67° C | 33% | 1008.7 hPa | 0 mm | - | 643 W/m² | - |
| 1778265009 | 16.11° C | 34% | 1008.6 hPa | 0 mm | - | 633 W/m² | - |
| 1778264706 | 16.11° C | 34% | 1008.6 hPa | 0 mm | - | 607 W/m² | - |
| 1778264402 | 16.67° C | 34% | 1008.8 hPa | 0 mm | - | 653 W/m² | - |
| 1778264098 | 16.11° C | 34% | 1008.9 hPa | 0 mm | - | 700 W/m² | - |
| 1778263795 | 16.11° C | 38% | 1009 hPa | 0 mm | - | 730 W/m² | - |
| 1778263492 | 16.11° C | 35% | 1009 hPa | 0 mm | - | 730 W/m² | - |
| 1778263188 | 16.11° C | 34% | 1009.1 hPa | 0 mm | - | 584 W/m² | - |
| 1778262884 | 16.11° C | 36% | 1009.1 hPa | 0 mm | - | 467 W/m² | - |
| 1778262582 | 16.11° C | 35% | 1009.2 hPa | 0 mm | - | 402 W/m² | - |
| 1778262279 | 16.11° C | 34% | 1009.3 hPa | 0 mm | - | 409 W/m² | - |
| 1778245355 | 9.44° C | 90% | 1012.4 hPa | 0 mm | - | 292 W/m² | - |
| 1778245051 | 9.44° C | 90% | 1012.4 hPa | 0 mm | - | 292 W/m² | - |
| 1778244747 | 9.44° C | 90% | 1012.5 hPa | 0 mm | - | 291 W/m² | - |
| 1778244446 | 9.44° C | 89% | 1012.6 hPa | 0 mm | - | 271 W/m² | - |
| 1778244142 | 9.44° C | 90% | 1012.6 hPa | 0 mm | - | 245 W/m² | - |
* Rain latest hour (hover to see other rain measurements)
** Current wind speed in m/s (hover to see current wind gust speed)